Time;durP1;ratioP1;P1;durP2;ratioP2;P2;SDS_P1;SDS_P2;PMS_P1;PMS_P2;Temp;Humidity;BMP_temperature;BMP_pressure;BME280_temperature;BME280_humidity;BME280_pressure;Samples;Min_cycle;Max_cycle;Signal;HPM_P1;HPM_P2
2023/08/16 00:01:25;;;;;;;1512.65;999.90;;;27.70;99.90;;;;;;5033221;28;20127;-65
2023/08/16 00:03:52;;;;;;;1636.45;999.90;;;27.70;99.90;;;;;;5033296;28;20028;-68
2023/08/16 00:06:19;;;;;;;1672.57;999.90;;;27.70;99.90;;;;;;5033193;28;20049;-67
2023/08/16 00:08:45;;;;;;;1513.97;999.90;;;27.70;99.90;;;;;;5033292;28;20026;-68
2023/08/16 00:11:12;;;;;;;1504.32;999.90;;;27.70;99.90;;;;;;5033314;28;20024;-65
2023/08/16 00:13:38;;;;;;;1471.85;999.90;;;27.70;99.90;;;;;;5033217;28;20108;-64
2023/08/16 00:16:05;;;;;;;1468.60;999.90;;;27.70;99.90;;;;;;5033101;28;20029;-65
2023/08/16 00:18:33;;;;;;;1448.72;999.90;;;27.70;99.90;;;;;;5033285;28;20075;-65
2023/08/16 00:21:00;;;;;;;1448.25;999.90;;;27.70;99.90;;;;;;5033089;28;20495;-65
2023/08/16 00:23:26;;;;;;;1432.28;999.90;;;27.80;99.90;;;;;;5033118;28;20097;-65
2023/08/16 00:25:53;;;;;;;1429.70;999.90;;;27.80;99.90;;;;;;5031743;28;20021;-68
2023/08/16 00:28:20;;;;;;;1459.20;999.90;;;27.80;99.90;;;;;;5033165;28;20037;-67
2023/08/16 00:30:46;;;;;;;1429.50;999.90;;;27.80;99.90;;;;;;5032835;28;20480;-65
2023/08/16 00:33:13;;;;;;;1459.80;999.90;;;27.80;99.90;;;;;;5032766;28;20040;-66
2023/08/16 00:35:39;;;;;;;1449.97;999.90;;;27.90;99.90;;;;;;5033054;28;20104;-67
2023/08/16 00:38:06;;;;;;;1452.13;999.90;;;27.80;99.90;;;;;;5032567;28;20133;-65
2023/08/16 00:40:32;;;;;;;1448.95;999.90;;;27.80;99.90;;;;;;5033014;28;20396;-66
2023/08/16 00:42:59;;;;;;;1470.45;999.90;;;27.90;99.90;;;;;;5033019;28;20029;-68
2023/08/16 00:45:25;;;;;;;1476.72;999.90;;;27.90;99.90;;;;;;5032339;28;20017;-65
2023/08/16 00:47:52;;;;;;;1484.95;999.90;;;27.90;99.90;;;;;;5032887;28;20063;-64
2023/08/16 00:50:21;;;;;;;1536.07;999.90;;;27.90;99.90;;;;;;5033017;28;20484;-65
2023/08/16 00:52:48;;;;;;;1538.25;999.90;;;28.00;99.90;;;;;;5032952;28;20044;-65
2023/08/16 00:55:16;;;;;;;1479.03;999.90;;;28.00;99.90;;;;;;5036295;28;20087;-66
2023/08/16 00:57:42;;;;;;;1478.45;999.90;;;28.00;99.90;;;;;;5036565;28;20029;-65
2023/08/16 01:00:10;;;;;;;1465.38;999.90;;;28.00;99.90;;;;;;5036215;28;20041;-66
2023/08/16 01:02:37;;;;;;;1460.72;999.90;;;28.00;99.90;;;;;;5036774;28;20101;-67
2023/08/16 01:05:04;;;;;;;1486.70;999.90;;;28.00;99.90;;;;;;5036538;28;20026;-66
2023/08/16 01:07:31;;;;;;;1483.53;999.90;;;28.10;99.90;;;;;;5036366;28;20018;-65
2023/08/16 01:09:57;;;;;;;1483.85;999.90;;;28.10;99.90;;;;;;5036767;28;20379;-66
2023/08/16 01:12:42;;;;;;;1497.40;999.90;;;28.10;99.90;;;;;;5036362;28;20399;-66
2023/08/16 01:15:14;;;;;;;1517.00;999.90;;;28.10;99.90;;;;;;5035095;28;20071;-66
2023/08/16 01:17:42;;;;;;;1518.38;999.90;;;28.00;99.90;;;;;;5032925;28;20021;-65
2023/08/16 01:20:12;;;;;;;1519.97;999.90;;;28.00;99.90;;;;;;5035291;28;20044;-65
2023/08/16 01:23:09;;;;;;;1500.32;999.90;;;28.10;99.90;;;;;;5036181;28;20034;-66
2023/08/16 01:25:46;;;;;;;1471.57;999.90;;;28.10;99.90;;;;;;5035997;28;20021;-65
2023/08/16 01:28:13;;;;;;;1485.05;999.90;;;28.20;99.90;;;;;;5036154;28;20026;-66
2023/08/16 01:30:40;;;;;;;1502.00;999.90;;;28.30;99.90;;;;;;5035879;28;20025;-66
2023/08/16 01:33:09;;;;;;;1481.80;999.90;;;28.30;99.90;;;;;;5029690;28;20487;-66
2023/08/16 01:35:36;;;;;;;1510.15;999.90;;;28.40;99.90;;;;;;5021074;28;20042;-66
2023/08/16 01:38:04;;;;;;;1514.07;999.90;;;28.50;99.90;;;;;;5015882;28;20321;-67
2023/08/16 01:40:38;;;;;;;1506.18;999.90;;;28.50;99.90;;;;;;5016041;28;20085;-66
2023/08/16 01:43:09;;;;;;;1512.55;999.90;;;28.60;99.90;;;;;;5035181;28;20022;-65
2023/08/16 01:45:36;;;;;;;1510.63;999.90;;;28.70;99.90;;;;;;5032333;28;20092;-66
2023/08/16 01:48:04;;;;;;;1484.18;999.90;;;28.70;99.90;;;;;;5035620;28;20048;-66
2023/08/16 01:50:30;;;;;;;1482.85;999.90;;;28.80;99.90;;;;;;5032923;28;20052;-66
2023/08/16 01:52:58;;;;;;;1522.65;999.90;;;28.80;99.90;;;;;;5035437;28;20387;-66
2023/08/16 01:55:24;;;;;;;1508.28;999.90;;;28.90;99.90;;;;;;5035180;28;20048;-65
2023/08/16 01:57:51;;;;;;;1484.50;999.90;;;28.90;99.90;;;;;;5033860;28;20040;-67
2023/08/16 02:00:17;;;;;;;1482.65;999.90;;;29.00;99.90;;;;;;5035240;28;20155;-65
2023/08/16 02:02:44;;;;;;;1460.80;999.90;;;29.00;99.90;;;;;;5035466;28;20044;-66
2023/08/16 02:05:10;;;;;;;1501.43;999.90;;;29.10;99.90;;;;;;5032382;28;20116;-66
2023/08/16 02:07:37;;;;;;;1493.60;999.90;;;29.10;99.90;;;;;;5034565;28;20013;-66
2023/08/16 02:10:04;;;;;;;1502.90;999.90;;;29.20;99.90;;;;;;5033777;28;20551;-66
2023/08/16 02:12:30;;;;;;;1517.28;999.90;;;29.20;99.90;;;;;;5032364;28;20064;-65
2023/08/16 02:14:57;;;;;;;1503.75;999.90;;;29.30;99.90;;;;;;5034744;28;20033;-66
2023/08/16 02:17:23;;;;;;;1522.20;999.90;;;29.30;99.90;;;;;;5034906;28;20021;-66
2023/08/16 02:19:50;;;;;;;1487.68;999.90;;;29.40;99.90;;;;;;5032210;28;20022;-67
2023/08/16 02:22:16;;;;;;;1508.07;999.90;;;29.40;99.90;;;;;;5034655;28;20387;-69
2023/08/16 02:24:43;;;;;;;1491.45;999.90;;;29.50;99.90;;;;;;5034714;28;20013;-66
2023/08/16 02:27:09;;;;;;;1511.40;999.90;;;29.50;99.90;;;;;;5032149;28;20084;-67
2023/08/16 02:29:36;;;;;;;1468.53;999.90;;;29.50;99.90;;;;;;5034771;28;20109;-65
2023/08/16 02:32:03;;;;;;;1459.18;999.90;;;29.50;99.90;;;;;;5035027;28;20025;-65
2023/08/16 02:34:30;;;;;;;1507.95;999.90;;;29.50;99.90;;;;;;5034703;28;20029;-67
2023/08/16 02:36:56;;;;;;;1493.90;999.90;;;29.60;99.90;;;;;;5034495;28;20061;-68
2023/08/16 02:39:23;;;;;;;1450.78;999.90;;;29.70;99.90;;;;;;5034916;28;20029;-65
2023/08/16 02:41:51;;;;;;;1453.50;999.90;;;29.70;99.90;;;;;;5034754;28;20468;-65
2023/08/16 02:44:17;;;;;;;1448.13;999.90;;;29.80;99.90;;;;;;5034590;28;20105;-66
2023/08/16 02:46:44;;;;;;;1466.68;999.90;;;29.80;99.90;;;;;;5024895;28;20117;-65
2023/08/16 02:49:10;;;;;;;1432.80;999.90;;;29.80;99.90;;;;;;5022749;28;20030;-67
2023/08/16 02:51:37;;;;;;;1441.63;999.90;;;29.80;99.90;;;;;;5015063;28;20025;-67
2023/08/16 02:54:06;;;;;;;1761.85;999.90;;;29.80;99.90;;;;;;5014695;28;20037;-66
2023/08/16 02:56:32;;;;;;;1408.57;999.90;;;30.00;99.90;;;;;;5014679;28;20608;-67
2023/08/16 02:58:59;;;;;;;1299.40;999.90;;;30.00;99.90;;;;;;5014367;28;20033;-66
2023/08/16 03:01:25;;;;;;;1412.80;999.90;;;30.10;99.90;;;;;;5014490;28;20034;-68
2023/08/16 03:03:52;;;;;;;1335.25;999.90;;;30.10;99.90;;;;;;5014501;28;20030;-67
2023/08/16 03:06:18;;;;;;;1322.90;999.90;;;30.20;99.90;;;;;;5014298;28;20485;-65
2023/08/16 03:08:45;;;;;;;1215.20;999.90;;;30.20;99.90;;;;;;5020501;28;20057;-65
2023/08/16 03:11:12;;;;;;;1194.13;999.90;;;30.30;99.90;;;;;;5033714;28;20026;-65
2023/08/16 03:13:38;;;;;;;1147.38;959.45;;;30.30;99.90;;;;;;5033654;28;20603;-66
2023/08/16 03:16:05;;;;;;;1066.40;782.15;;;30.40;99.90;;;;;;5031573;28;20108;-64
2023/08/16 03:18:31;;;;;;;995.15;652.65;;;30.50;99.90;;;;;;5033589;28;20026;-66
2023/08/16 03:20:58;;;;;;;959.72;561.67;;;30.60;99.90;;;;;;5030532;28;20076;-67
2023/08/16 03:23:25;;;;;;;640.30;394.80;;;30.60;99.90;;;;;;5033494;28;20080;-65
2023/08/16 03:25:51;;;;;;;1001.72;649.78;;;30.70;99.90;;;;;;5033510;28;20029;-65
2023/08/16 03:28:18;;;;;;;998.38;654.25;;;30.80;99.90;;;;;;5029503;28;20033;-65
2023/08/16 03:30:44;;;;;;;995.65;650.20;;;30.90;99.90;;;;;;5026431;28;20029;-65
2023/08/16 03:33:11;;;;;;;1003.03;659.97;;;30.90;99.90;;;;;;5033371;28;20030;-65
2023/08/16 03:35:38;;;;;;;999.05;683.58;;;30.80;99.90;;;;;;5033347;28;20032;-65
2023/08/16 03:38:04;;;;;;;990.45;664.58;;;30.80;99.90;;;;;;5029743;28;20060;-64
2023/08/16 03:40:31;;;;;;;1008.85;662.00;;;30.80;99.90;;;;;;5026606;28;20029;-64
2023/08/16 03:42:57;;;;;;;984.20;632.03;;;30.90;99.90;;;;;;5033315;28;20024;-65
2023/08/16 03:45:26;;;;;;;1005.97;672.35;;;30.90;99.90;;;;;;5032632;28;20079;-64
2023/08/16 03:47:54;;;;;;;1012.92;698.38;;;30.90;99.90;;;;;;5033177;28;20040;-69
2023/08/16 03:50:20;;;;;;;1241.57;999.90;;;31.00;99.90;;;;;;5030260;28;20018;-64
2023/08/16 03:52:47;;;;;;;1103.88;855.60;;;31.10;99.90;;;;;;5032911;28;20383;-65
2023/08/16 03:55:14;;;;;;;1251.32;999.90;;;31.20;99.90;;;;;;5033013;28;20017;-65
2023/08/16 03:57:40;;;;;;;1334.40;999.90;;;31.30;99.90;;;;;;5034190;28;20021;-64
2023/08/16 04:00:11;;;;;;;1083.22;871.53;;;31.40;99.90;;;;;;5033935;28;20024;-64
2023/08/16 04:02:39;;;;;;;1090.65;867.00;;;31.50;99.90;;;;;;5034087;28;20028;-68
2023/08/16 04:05:10;;;;;;;1094.70;898.28;;;31.60;99.90;;;;;;5033770;28;20021;-68
2023/08/16 04:07:36;;;;;;;1077.50;853.80;;;31.60;99.90;;;;;;5032640;28;20032;-65
2023/08/16 04:10:03;;;;;;;1059.43;794.95;;;31.60;99.90;;;;;;5033642;28;20028;-64
2023/08/16 04:12:30;;;;;;;1130.47;953.28;;;31.60;99.90;;;;;;5033324;28;20032;-68
2023/08/16 04:14:56;;;;;;;1043.75;744.10;;;31.60;99.90;;;;;;5033371;28;20468;-65
2023/08/16 04:17:23;;;;;;;1041.85;783.42;;;31.60;99.90;;;;;;5033322;28;20083;-65
2023/08/16 04:19:49;;;;;;;1106.25;925.00;;;31.60;99.90;;;;;;5026023;28;20598;-65
2023/08/16 04:22:16;;;;;;;1032.22;729.50;;;31.70;99.90;;;;;;5013345;28;20065;-65
2023/08/16 04:24:42;;;;;;;1048.80;778.55;;;31.70;99.90;;;;;;5023582;28;20025;-67
2023/08/16 04:27:09;;;;;;;1144.68;965.28;;;31.70;99.90;;;;;;5013987;28;20041;-64
2023/08/16 04:29:35;;;;;;;1193.32;999.90;;;31.80;99.90;;;;;;5026312;28;20053;-68
2023/08/16 04:32:02;;;;;;;1190.20;999.90;;;31.80;99.90;;;;;;5019001;28;20454;-68
2023/08/16 04:34:29;;;;;;;1237.85;999.90;;;31.80;99.90;;;;;;5025826;28;20029;-67
2023/08/16 04:36:56;;;;;;;1291.68;999.90;;;31.80;99.90;;;;;;5019889;28;20107;-66
2023/08/16 04:39:22;;;;;;;1267.55;999.90;;;31.70;99.90;;;;;;5030199;28;20108;-68
2023/08/16 04:41:49;;;;;;;1208.20;999.90;;;31.60;99.90;;;;;;5035519;28;20030;-69
2023/08/16 04:44:15;;;;;;;1204.38;999.90;;;31.70;99.90;;;;;;5035760;28;20025;-68
2023/08/16 04:46:42;;;;;;;1271.07;999.90;;;31.70;99.90;;;;;;5034116;28;20104;-66
2023/08/16 04:49:08;;;;;;;1337.32;999.90;;;31.60;99.90;;;;;;5036854;28;20238;-67
2023/08/16 04:51:35;;;;;;;1472.95;999.90;;;31.60;99.90;;;;;;5037182;28;20048;-66
2023/08/16 04:54:01;;;;;;;1483.10;999.90;;;31.60;99.90;;;;;;5036909;28;20022;-65
2023/08/16 04:56:28;;;;;;;1270.13;999.90;;;31.60;99.90;;;;;;5036912;28;20492;-65
2023/08/16 04:58:54;;;;;;;1412.53;999.90;;;31.60;99.90;;;;;;5036704;28;20064;-67
2023/08/16 05:01:21;;;;;;;1310.78;999.90;;;31.60;99.90;;;;;;5036856;28;20078;-66
2023/08/16 05:03:50;;;;;;;1303.47;999.90;;;31.70;99.90;;;;;;5036906;28;20044;-68
2023/08/16 05:06:17;;;;;;;1263.80;999.90;;;31.70;99.90;;;;;;5036672;28;20022;-66
2023/08/16 05:08:44;;;;;;;1224.13;999.90;;;31.70;99.90;;;;;;5036662;28;20599;-65
2023/08/16 05:11:11;;;;;;;1272.28;999.90;;;31.70;99.90;;;;;;5036621;28;20052;-65
2023/08/16 05:13:37;;;;;;;1187.82;998.25;;;31.70;99.90;;;;;;5036527;28;20451;-65
2023/08/16 05:16:04;;;;;;;1242.20;999.90;;;31.80;99.90;;;;;;5036459;28;20064;-64
2023/08/16 05:18:30;;;;;;;1236.38;999.90;;;31.80;99.90;;;;;;5018447;28;20457;-65
2023/08/16 05:21:00;;;;;;;1227.78;999.90;;;31.80;99.90;;;;;;5036221;28;20036;-65
2023/08/16 05:23:27;;;;;;;1237.80;999.90;;;31.80;99.90;;;;;;5035721;28;20025;-65
2023/08/16 05:25:54;;;;;;;1037.45;750.08;;;31.90;99.90;;;;;;5035785;28;20021;-65
2023/08/16 05:28:20;;;;;;;987.92;651.10;;;32.00;99.90;;;;;;5035807;28;20029;-66
2023/08/16 05:30:47;;;;;;;1014.00;702.25;;;32.00;99.90;;;;;;5035854;28;20022;-65
2023/08/16 05:33:13;;;;;;;1020.60;685.72;;;32.10;99.90;;;;;;5035696;28;20476;-66
2023/08/16 05:35:40;;;;;;;1011.97;669.90;;;32.20;99.90;;;;;;5033488;28;20100;-69
2023/08/16 05:38:07;;;;;;;990.25;618.97;;;32.30;99.90;;;;;;5030669;28;20084;-69
2023/08/16 05:40:33;;;;;;;980.55;604.72;;;32.40;99.90;;;;;;5033904;28;20036;-64
2023/08/16 05:43:00;;;;;;;980.80;605.67;;;32.50;99.90;;;;;;5035348;28;20329;-67
2023/08/16 05:45:28;;;;;;;921.97;476.02;;;32.50;99.90;;;;;;5035108;28;20029;-70
2023/08/16 05:47:55;;;;;;;813.15;253.95;;;32.60;99.90;;;;;;5032594;28;20033;-66
2023/08/16 05:50:22;;;;;;;912.90;475.15;;;32.60;99.90;;;;;;5033712;28;20009;-64
2023/08/16 05:52:48;;;;;;;1014.92;683.00;;;32.60;99.90;;;;;;5034420;28;20018;-67
2023/08/16 05:55:15;;;;;;;1029.10;723.63;;;32.60;99.90;;;;;;5034467;28;20417;-65
2023/08/16 05:57:42;;;;;;;1002.15;657.13;;;32.60;99.90;;;;;;5032631;28;20087;-65
2023/08/16 06:00:10;;;;;;;1008.05;669.85;;;32.60;99.90;;;;;;5032981;28;20017;-66
2023/08/16 06:02:36;;;;;;;1026.88;727.95;;;32.60;99.90;;;;;;5035205;28;20472;-66
2023/08/16 06:05:04;;;;;;;988.83;632.17;;;32.70;99.90;;;;;;5033217;28;20452;-66
2023/08/16 06:07:31;;;;;;;946.55;520.05;;;32.70;99.90;;;;;;5034482;28;20022;-66
2023/08/16 06:09:58;;;;;;;936.60;489.65;;;32.70;99.90;;;;;;5034804;28;20420;-64
2023/08/16 06:12:24;;;;;;;982.72;607.90;;;32.70;99.90;;;;;;5033772;28;20357;-64
2023/08/16 06:14:51;;;;;;;1009.80;662.58;;;32.70;99.90;;;;;;5034374;28;20045;-64
2023/08/16 06:17:17;;;;;;;987.50;620.92;;;32.60;99.90;;;;;;5034611;28;20036;-64
2023/08/16 06:19:44;;;;;;;1014.88;702.53;;;32.60;99.90;;;;;;5034564;28;20434;-65
2023/08/16 06:22:10;;;;;;;1003.85;689.78;;;32.60;99.90;;;;;;5032579;28;20450;-66
2023/08/16 06:24:37;;;;;;;974.17;568.25;;;32.70;99.90;;;;;;5031594;28;20071;-65
2023/08/16 06:27:05;;;;;;;949.40;545.50;;;32.70;99.90;;;;;;5031560;28;20930;-67
2023/08/16 06:29:32;;;;;;;1011.00;668.80;;;32.70;99.90;;;;;;5031714;28;20022;-64
2023/08/16 06:31:59;;;;;;;1268.82;999.90;;;32.70;99.90;;;;;;5032365;28;20026;-68
2023/08/16 06:34:26;;;;;;;1460.45;999.90;;;32.70;99.90;;;;;;5034301;28;20025;-66
2023/08/16 06:36:53;;;;;;;1448.35;999.90;;;32.70;99.90;;;;;;5030642;28;20065;-66
2023/08/16 06:39:19;;;;;;;1552.18;999.90;;;32.70;99.90;;;;;;5029213;28;20619;-64
2023/08/16 06:41:46;;;;;;;1553.35;999.90;;;32.70;99.90;;;;;;5034428;28;20025;-65
2023/08/16 06:44:13;;;;;;;1375.90;999.90;;;32.70;99.90;;;;;;5031006;28;20025;-65
2023/08/16 06:46:39;;;;;;;1339.35;999.90;;;32.70;99.90;;;;;;5032020;28;20025;-64
2023/08/16 06:49:06;;;;;;;1437.00;999.90;;;32.70;99.90;;;;;;5030793;28;20014;-61
2023/08/16 06:51:32;;;;;;;1585.45;999.90;;;32.70;99.90;;;;;;5031473;28;20033;-63
2023/08/16 06:53:59;;;;;;;1433.63;999.90;;;32.70;99.90;;;;;;5032950;28;20487;-64
2023/08/16 06:56:25;;;;;;;1281.65;999.90;;;32.80;99.90;;;;;;5032538;28;20060;-64
2023/08/16 06:58:52;;;;;;;1373.88;999.90;;;32.90;99.90;;;;;;5034523;28;20041;-65
2023/08/16 07:01:18;;;;;;;1466.68;999.90;;;32.80;99.90;;;;;;5017667;28;20038;-66
2023/08/16 07:03:46;;;;;;;1396.80;999.90;;;32.80;99.90;;;;;;5019639;28;20511;-65
2023/08/16 07:06:13;;;;;;;1549.32;999.90;;;32.80;99.90;;;;;;5027757;28;20109;-67
2023/08/16 07:08:40;;;;;;;1595.88;999.90;;;32.80;99.90;;;;;;5014846;28;20044;-67
2023/08/16 07:11:07;;;;;;;1561.35;999.90;;;32.90;99.90;;;;;;5015103;28;20109;-66
2023/08/16 07:13:33;;;;;;;1555.80;999.90;;;32.90;99.90;;;;;;5033428;28;20100;-66
2023/08/16 07:16:00;;;;;;;1595.93;999.90;;;32.90;99.90;;;;;;5028135;28;20109;-68
2023/08/16 07:18:26;;;;;;;1558.97;999.90;;;32.90;99.90;;;;;;5033802;28;20026;-67
2023/08/16 07:20:53;;;;;;;1581.50;999.90;;;32.90;99.90;;;;;;5033803;28;20067;-67
2023/08/16 07:23:19;;;;;;;1576.40;999.90;;;32.90;99.90;;;;;;5030839;28;20067;-67
2023/08/16 07:25:46;;;;;;;1557.80;999.90;;;32.90;99.90;;;;;;5033495;28;20013;-68
2023/08/16 07:28:12;;;;;;;1556.03;999.90;;;32.90;99.90;;;;;;5033445;28;20104;-68
2023/08/16 07:30:39;;;;;;;1557.53;999.90;;;32.90;99.90;;;;;;5033283;28;20024;-66
2023/08/16 07:33:06;;;;;;;1560.53;999.90;;;32.90;99.90;;;;;;5033299;28;20029;-66
2023/08/16 07:35:33;;;;;;;1575.53;999.90;;;32.90;99.90;;;;;;5033267;28;20025;-66
2023/08/16 07:38:02;;;;;;;1588.53;999.90;;;32.90;99.90;;;;;;5032374;28;20050;-68
2023/08/16 07:40:29;;;;;;;1604.18;999.90;;;32.90;99.90;;;;;;5033019;28;20028;-71
2023/08/16 07:42:55;;;;;;;1557.50;999.90;;;32.90;99.90;;;;;;5033028;28;20022;-70
2023/08/16 07:45:22;;;;;;;1561.50;999.90;;;32.90;99.90;;;;;;5031415;28;20468;-70
2023/08/16 07:47:48;;;;;;;1574.85;999.90;;;33.00;99.90;;;;;;5032161;28;20076;-67
2023/08/16 07:50:15;;;;;;;1574.50;999.90;;;33.00;99.90;;;;;;5032977;28;20059;-67
2023/08/16 07:52:42;;;;;;;1591.80;999.90;;;32.90;99.90;;;;;;5032809;28;20048;-69
2023/08/16 07:55:08;;;;;;;1589.22;999.90;;;32.90;99.90;;;;;;5032568;28;20080;-70
2023/08/16 07:57:35;;;;;;;1559.18;999.90;;;32.90;99.90;;;;;;5033114;28;20506;-69
2023/08/16 08:00:01;;;;;;;1531.82;999.90;;;32.80;99.90;;;;;;5032883;28;20020;-67
2023/08/16 08:02:28;;;;;;;1340.88;999.90;;;32.90;99.90;;;;;;5032574;28;20040;-66
2023/08/16 08:04:55;;;;;;;1317.07;999.90;;;32.90;99.90;;;;;;5028869;28;20033;-66
2023/08/16 08:07:22;;;;;;;1337.45;999.90;;;32.90;99.90;;;;;;5026062;28;20021;-66
2023/08/16 08:09:49;;;;;;;1310.68;999.90;;;33.00;99.90;;;;;;5024852;28;20030;-69
2023/08/16 08:12:16;;;;;;;1352.68;999.90;;;33.00;99.90;;;;;;5026076;28;20104;-66
2023/08/16 08:14:42;;;;;;;1302.93;999.90;;;33.00;99.90;;;;;;5028625;28;20037;-67
2023/08/16 08:17:09;;;;;;;1271.65;999.90;;;33.00;99.90;;;;;;5023542;28;20026;-69
2023/08/16 08:19:35;;;;;;;1370.93;999.90;;;33.00;99.90;;;;;;5027030;28;20136;-67
2023/08/16 08:22:03;;;;;;;1239.32;999.90;;;33.00;99.90;;;;;;5026063;28;20033;-68
2023/08/16 08:24:29;;;;;;;1353.90;999.90;;;33.00;99.90;;;;;;5031028;28;20031;-66
2023/08/16 08:26:57;;;;;;;1370.30;999.90;;;33.00;99.90;;;;;;5030310;28;20026;-66
2023/08/16 08:29:25;;;;;;;1488.10;999.90;;;33.00;99.90;;;;;;5032372;28;20014;-64
2023/08/16 08:31:53;;;;;;;1542.80;999.90;;;33.00;99.90;;;;;;5030219;28;20442;-64
2023/08/16 08:34:20;;;;;;;1532.50;999.90;;;33.00;99.90;;;;;;5032665;28;20021;-66
2023/08/16 08:36:46;;;;;;;1534.47;999.90;;;33.00;99.90;;;;;;5030162;28;20034;-66
2023/08/16 08:39:15;;;;;;;1563.10;999.90;;;33.00;99.90;;;;;;5030167;28;20067;-67
2023/08/16 08:41:42;;;;;;;1560.45;999.90;;;33.00;99.90;;;;;;5025768;28;20452;-63
2023/08/16 08:44:09;;;;;;;1574.10;999.90;;;33.00;99.90;;;;;;5032498;28;20018;-64
2023/08/16 08:46:36;;;;;;;1549.68;999.90;;;32.90;99.90;;;;;;5029927;28;20067;-64
2023/08/16 08:49:05;;;;;;;1576.95;999.90;;;32.80;99.90;;;;;;5032698;28;20028;-64
2023/08/16 08:51:33;;;;;;;1569.45;999.90;;;32.90;99.90;;;;;;5030007;28;20365;-64
2023/08/16 08:54:00;;;;;;;1542.95;999.90;;;32.90;99.90;;;;;;5032618;28;20086;-64
2023/08/16 08:56:29;;;;;;;1550.50;999.90;;;32.90;99.90;;;;;;5030232;28;20025;-64
2023/08/16 08:58:56;;;;;;;1553.38;999.90;;;32.80;99.90;;;;;;5030100;28;20093;-64
2023/08/16 09:01:24;;;;;;;1568.40;999.90;;;32.90;99.90;;;;;;5030034;28;20026;-65
2023/08/16 09:03:53;;;;;;;1558.32;999.90;;;32.90;99.90;;;;;;5028212;28;20418;-64
2023/08/16 09:06:20;;;;;;;1567.28;999.90;;;32.90;99.90;;;;;;5029535;28;20028;-65
2023/08/16 09:08:48;;;;;;;1582.18;999.90;;;32.90;99.90;;;;;;5032414;28;20089;-65
2023/08/16 09:11:15;;;;;;;1543.78;999.90;;;32.90;99.90;;;;;;5029246;28;20013;-66
2023/08/16 09:13:41;;;;;;;1569.57;999.90;;;32.90;99.90;;;;;;5032666;28;20087;-65
2023/08/16 09:16:08;;;;;;;1549.07;999.90;;;32.90;99.90;;;;;;5034754;28;20025;-66
2023/08/16 09:18:35;;;;;;;1540.45;999.90;;;33.00;99.90;;;;;;5036250;28;20021;-66
2023/08/16 09:21:01;;;;;;;1569.95;999.90;;;33.00;99.90;;;;;;5033865;28;20035;-65
2023/08/16 09:23:28;;;;;;;1562.80;999.90;;;33.00;99.90;;;;;;5036032;28;20349;-67
2023/08/16 09:25:55;;;;;;;1573.05;999.90;;;33.00;99.90;;;;;;5029929;28;20107;-66
2023/08/16 09:28:21;;;;;;;1635.22;999.90;;;32.90;99.90;;;;;;5032853;28;20124;-68
2023/08/16 09:30:48;;;;;;;1582.97;999.90;;;32.80;99.90;;;;;;5034096;28;20029;-68
2023/08/16 09:33:18;;;;;;;1575.78;999.90;;;32.80;99.90;;;;;;5031175;28;20086;-69
2023/08/16 09:35:51;;;;;;;1573.93;999.90;;;32.70;99.90;;;;;;5029815;28;20562;-69
2023/08/16 09:38:21;;;;;;;1546.80;999.90;;;32.60;99.90;;;;;;5036049;28;20404;-68
2023/08/16 09:40:49;;;;;;;1576.70;999.90;;;32.60;99.90;;;;;;5032251;28;20025;-67
2023/08/16 09:43:18;;;;;;;1562.93;999.90;;;32.50;99.90;;;;;;5025535;28;20017;-65
2023/08/16 09:45:52;;;;;;;1548.93;999.90;;;32.50;99.90;;;;;;5028376;28;20052;-67
2023/08/16 09:48:24;;;;;;;1560.30;999.90;;;32.50;99.90;;;;;;5024391;28;20026;-66
2023/08/16 09:50:51;;;;;;;1575.10;999.90;;;32.50;99.90;;;;;;5018770;28;20033;-68
2023/08/16 09:53:17;;;;;;;1571.80;999.90;;;32.40;99.90;;;;;;5024768;28;20096;-66
2023/08/16 09:55:50;;;;;;;1577.78;999.90;;;32.40;99.90;;;;;;5019041;28;20108;-68
2023/08/16 09:58:18;;;;;;;1598.50;999.90;;;32.40;99.90;;;;;;5024563;28;20036;-68
2023/08/16 10:00:47;;;;;;;1626.80;999.90;;;32.30;99.90;;;;;;5018559;28;20472;-68
2023/08/16 10:03:14;;;;;;;1661.65;999.90;;;32.20;99.90;;;;;;5026648;28;20036;-67
2023/08/16 10:05:42;;;;;;;1617.55;999.90;;;32.20;99.90;;;;;;5033111;28;20028;-67
2023/08/16 10:08:10;;;;;;;1609.18;999.90;;;32.10;99.90;;;;;;5033422;28;20052;-67
2023/08/16 10:10:37;;;;;;;1599.43;999.90;;;32.00;99.90;;;;;;5032101;28;20022;-67
2023/08/16 10:13:07;;;;;;;1611.20;999.90;;;31.90;99.90;;;;;;5030383;28;20037;-68
2023/08/16 10:15:35;;;;;;;1618.10;999.90;;;31.80;99.90;;;;;;5032489;28;20341;-68
2023/08/16 10:18:06;;;;;;;1604.50;999.90;;;31.70;99.90;;;;;;5034559;28;20162;-67
2023/08/16 10:20:36;;;;;;;1615.43;999.90;;;31.80;99.90;;;;;;5033878;28;20057;-66
2023/08/16 10:23:06;;;;;;;1627.90;999.90;;;31.80;99.90;;;;;;5032767;28;20108;-66
2023/08/16 10:25:44;;;;;;;1599.65;999.90;;;31.90;99.90;;;;;;5032040;28;20030;-68
2023/08/16 10:28:11;;;;;;;1626.45;999.90;;;31.90;99.90;;;;;;5030599;28;20032;-69
2023/08/16 10:30:39;;;;;;;1649.85;999.90;;;31.90;99.90;;;;;;5033465;28;20017;-68
2023/08/16 10:33:09;;;;;;;1640.28;999.90;;;31.90;99.90;;;;;;5032753;28;20545;-67
2023/08/16 10:35:38;;;;;;;1636.93;999.90;;;31.80;99.90;;;;;;5032515;28;20481;-66
2023/08/16 10:38:05;;;;;;;1605.50;999.90;;;31.80;99.90;;;;;;5031364;28;20041;-66
2023/08/16 10:40:32;;;;;;;1613.40;999.90;;;31.80;99.90;;;;;;5032601;28;20068;-68
2023/08/16 10:43:03;;;;;;;1618.22;999.90;;;31.90;99.90;;;;;;5024034;28;20022;-68
2023/08/16 10:45:40;;;;;;;1596.55;999.90;;;31.90;99.90;;;;;;5016673;28;20435;-68
2023/08/16 10:48:10;;;;;;;1628.00;999.90;;;31.90;99.90;;;;;;5030670;28;20391;-68
2023/08/16 10:50:37;;;;;;;1636.60;999.90;;;31.80;99.90;;;;;;5032453;28;20464;-67
2023/08/16 10:53:05;;;;;;;1618.30;999.90;;;31.80;99.90;;;;;;5022150;28;20025;-68
2023/08/16 10:55:32;;;;;;;1639.35;999.90;;;31.70;99.90;;;;;;5019589;28;20017;-70
2023/08/16 10:57:58;;;;;;;1628.70;999.90;;;31.70;99.90;;;;;;5023360;28;20041;-70
2023/08/16 11:00:39;;;;;;;1619.20;999.90;;;31.70;99.90;;;;;;5015264;28;20022;-69
2023/08/16 11:03:18;;;;;;;1618.13;999.90;;;31.70;99.90;;;;;;5030279;28;20540;-68
2023/08/16 11:05:46;;;;;;;1606.05;999.90;;;31.70;99.90;;;;;;5031656;28;20021;-69
2023/08/16 11:08:13;;;;;;;1632.78;999.90;;;31.70;99.90;;;;;;5022936;28;20026;-66
2023/08/16 11:10:41;;;;;;;1628.30;999.90;;;31.70;99.90;;;;;;5016314;28;20161;-65
2023/08/16 11:13:11;;;;;;;1634.18;999.90;;;31.60;99.90;;;;;;5029714;28;20526;-67
2023/08/16 11:15:39;;;;;;;1618.57;999.90;;;31.60;99.90;;;;;;5031815;28;20030;-66
2023/08/16 11:18:06;;;;;;;1606.60;999.90;;;31.60;99.90;;;;;;5030088;28;20048;-68
2023/08/16 11:20:32;;;;;;;1597.20;999.90;;;31.60;99.90;;;;;;5031545;28;20169;-67
2023/08/16 11:22:59;;;;;;;1617.25;999.90;;;31.60;99.90;;;;;;5024343;28;20018;-64
2023/08/16 11:25:35;;;;;;;1610.40;999.90;;;31.50;99.90;;;;;;5014589;28;20110;-67
2023/08/16 11:28:05;;;;;;;1604.10;999.90;;;31.50;99.90;;;;;;5023220;28;20033;-66
2023/08/16 11:30:32;;;;;;;1611.20;999.90;;;31.50;99.90;;;;;;5019662;28;20021;-67
2023/08/16 11:33:00;;;;;;;1611.15;999.90;;;31.40;99.90;;;;;;5022615;28;20499;-67
2023/08/16 11:35:26;;;;;;;1605.95;999.90;;;31.40;99.90;;;;;;5031243;28;20480;-67
2023/08/16 11:40:48;;;;;;;1611.13;999.90;;;31.40;99.90;;;;;;5031323;28;20048;-68
2023/08/16 11:43:15;;;;;;;1585.60;999.90;;;31.40;99.90;;;;;;5022298;28;20088;-69
2023/08/16 11:45:41;;;;;;;1619.28;999.90;;;31.40;99.90;;;;;;5015576;28;20097;-70
2023/08/16 11:48:08;;;;;;;1580.25;999.90;;;31.30;99.90;;;;;;5022938;28;20476;-69
2023/08/16 11:50:35;;;;;;;1580.63;999.90;;;31.20;99.90;;;;;;5019581;28;20034;-67
2023/08/16 11:53:04;;;;;;;1575.15;999.90;;;31.20;99.90;;;;;;5018589;28;20026;-67
2023/08/16 11:55:31;;;;;;;1551.55;999.90;;;31.20;99.90;;;;;;5020843;28;20057;-67
2023/08/16 11:58:09;;;;;;;1563.40;999.90;;;31.20;99.90;;;;;;5023513;28;20034;-69
2023/08/16 12:00:36;;;;;;;1565.22;999.90;;;31.10;99.90;;;;;;5014518;28;20247;-66
2023/08/16 12:03:03;;;;;;;1570.28;999.90;;;31.10;99.90;;;;;;5028344;28;20036;-66